Airfield :
LOGIN :

Register | Disclaimer

   EN    FR    IT 

 










Legend :    VFR   Marginal VFR   IFR   Intensive IFR   Very Intensive IFR
Visi :
Ceiling :
>= 8 km
>= 3000ft
5 to 8 km
1000 to 3000 ft
1500m to 5 km
500 to 1000 ft
800 to 1500m
200 to 500 ft
< 800m
< 200 ft
Symbols :   Thunderstorms  Fog  Heavy snow  Heavy precipitations  Wind > 20 kt
SIGMETs :     Misc.  Thunderstorms  Icing  Turbulence  Mountain Waves  Volcanic Ashes






- Airport Elevation : 2625 ft
- IATA code : LEU


LESU - Aeròdrom dels Pirineus-Alt Urgell

CURRENT METAR :
  • 281600Z 21009KT 160V250 9999 SCT060TCU BKN080 25/11 Q1022

EXPIRED METARs :
  • 281530Z 21011KT 170V230 9999 SCT050TCU BKN055 25/11 Q1023
  • 281500Z 22008KT 190V260 9999 SCT050TCU SCT055 25/11 Q1023
  • 281430Z 22008KT 180V260 9999 SCT050TCU SCT055 25/11 Q1023
  • 281400Z 21011KT 9999 SCT050TCU SCT055 25/10 Q1023
  • 281330Z 21013KT 180V240 9999 SCT050TCU SCT055 26/11 Q1023

TAF TAF LESU
Valid from the 28 at 15:00 until the 29 at 15:00 UTC


281400Z 2815/2915 22010KT 9999 FEW050 TX28/2914Z TN10/2906Z
PROB30
TEMPO 2815/2819 4000 SHRA FEW020CB BKN022
BECMG 2817/2820 VRB04KT



MET'MAP, your aeronautical weather chart ! - Copyright ORBIFLY December 2007 - Disclaimer

ORBIFLY MET'MAP TEAM :

Programming & Development : Alexandra Zaïnal
Concept & original design : Baudouin d'Aumeries
Assistance for programming : Marc-Olivier Méhu
Technical & hardware support : Manuel Goepfert

Contact : metmap@orbifly.com




SOURCES & CREDITS :

   NOAA